createdAt,value
2022-10-04T00:00:19.639Z,1003.47
2022-10-04T00:01:19.661Z,1003.40
2022-10-04T00:02:19.626Z,1003.42
2022-10-04T00:03:19.663Z,1003.39
2022-10-04T00:04:20.611Z,1003.38
2022-10-04T00:05:19.606Z,1003.50
2022-10-04T00:06:19.595Z,1003.51
2022-10-04T00:07:19.583Z,1003.54
2022-10-04T00:08:19.606Z,1003.51
2022-10-04T00:09:19.575Z,1003.50
2022-10-04T00:10:19.565Z,1003.57
2022-10-04T00:11:19.559Z,1003.57
2022-10-04T00:12:19.541Z,1003.54
2022-10-04T00:13:19.565Z,1003.55
2022-10-04T00:14:19.525Z,1003.59
2022-10-04T00:15:19.600Z,1003.52
2022-10-04T00:16:19.630Z,1003.49
2022-10-04T00:17:19.512Z,1003.48
2022-10-04T00:18:19.531Z,1003.54
2022-10-04T00:19:19.495Z,1003.47
2022-10-04T00:20:19.487Z,1003.50
2022-10-04T00:21:19.477Z,1003.47
2022-10-04T00:22:19.469Z,1003.53
2022-10-04T00:23:19.490Z,1003.46
2022-10-04T00:24:19.459Z,1003.49
2022-10-04T00:25:19.447Z,1003.48
2022-10-04T00:26:19.434Z,1003.50
2022-10-04T00:27:19.436Z,1003.38
2022-10-04T00:28:19.526Z,1003.43
2022-10-04T00:29:19.416Z,1003.49
2022-10-04T00:30:19.404Z,1003.45
2022-10-04T00:31:19.444Z,1003.44
2022-10-04T00:32:19.384Z,1003.39
2022-10-04T00:33:19.412Z,1003.46
2022-10-04T00:34:19.381Z,1003.43
2022-10-04T00:35:19.363Z,1003.49
2022-10-04T00:36:19.362Z,1003.42
2022-10-04T00:37:19.358Z,1003.55
2022-10-04T00:38:19.362Z,1003.50
2022-10-04T00:39:19.338Z,1003.59
2022-10-04T00:40:19.325Z,1003.57
2022-10-04T00:41:19.321Z,1003.60
2022-10-04T00:42:19.312Z,1003.63
2022-10-04T00:43:19.332Z,1003.67
2022-10-04T00:44:19.296Z,1003.61
2022-10-04T00:45:19.289Z,1003.68
2022-10-04T00:46:19.298Z,1003.57
2022-10-04T00:47:19.271Z,1003.55
2022-10-04T00:48:19.298Z,1003.51
2022-10-04T00:49:19.250Z,1003.43
2022-10-04T00:50:19.255Z,1003.38
2022-10-04T00:51:19.242Z,1003.42
2022-10-04T00:52:19.232Z,1003.40
2022-10-04T00:53:19.253Z,1003.39
2022-10-04T00:54:19.212Z,1003.44
2022-10-04T00:55:19.208Z,1003.40
2022-10-04T00:56:19.201Z,1003.36
2022-10-04T00:57:19.197Z,1003.34
2022-10-04T00:58:19.191Z,1003.32
2022-10-04T00:59:19.206Z,1003.34
2022-10-04T01:00:19.180Z,1003.26
2022-10-04T01:01:19.201Z,1003.21
2022-10-04T01:02:19.239Z,1003.15
2022-10-04T01:03:19.143Z,1003.13
2022-10-04T01:04:19.172Z,1003.15
2022-10-04T01:05:19.138Z,1003.10
2022-10-04T01:06:19.127Z,1003.10
2022-10-04T01:07:19.130Z,1003.06
2022-10-04T01:08:19.110Z,1003.11
2022-10-04T01:09:19.130Z,1003.00
2022-10-04T01:10:19.098Z,1003.04
2022-10-04T01:11:19.091Z,1003.02
2022-10-04T01:12:19.077Z,1003.03
2022-10-04T01:13:19.067Z,1003.11
2022-10-04T01:14:19.091Z,1003.07
2022-10-04T01:15:19.053Z,1003.10
2022-10-04T01:16:19.097Z,1003.07
2022-10-04T01:17:19.046Z,1003.02
2022-10-04T01:18:19.036Z,1003.12
2022-10-04T01:19:19.062Z,1003.15
2022-10-04T01:20:19.019Z,1003.11
2022-10-04T01:21:19.021Z,1003.14
2022-10-04T01:22:19.003Z,1003.10
2022-10-04T01:23:19.002Z,1003.10
2022-10-04T01:24:18.998Z,1003.15
2022-10-04T01:25:19.006Z,1003.03
2022-10-04T01:26:18.966Z,1003.09
2022-10-04T01:27:18.966Z,1003.14
2022-10-04T01:28:19.010Z,1003.15
2022-10-04T01:29:18.954Z,1003.08
2022-10-04T01:30:18.974Z,1003.07
2022-10-04T01:31:18.970Z,1003.05
2022-10-04T01:32:18.923Z,1003.02
2022-10-04T01:33:18.919Z,1003.05
2022-10-04T01:34:18.939Z,1003.02
2022-10-04T01:35:18.896Z,1002.98
2022-10-04T01:36:18.897Z,1002.99
2022-10-04T01:37:18.888Z,1003.02
2022-10-04T01:38:18.880Z,1003.06
2022-10-04T01:39:18.903Z,1003.01
2022-10-04T01:40:18.862Z,1003.01
2022-10-04T01:41:18.855Z,1003.04
2022-10-04T01:42:18.854Z,1003.07
2022-10-04T01:43:18.842Z,1002.98
2022-10-04T01:44:18.867Z,1003.02
2022-10-04T01:45:18.828Z,1002.94
2022-10-04T01:46:18.836Z,1003.01
2022-10-04T01:47:18.808Z,1002.97
2022-10-04T01:48:18.802Z,1002.96
2022-10-04T01:49:18.794Z,1002.90
2022-10-04T01:50:18.805Z,1002.96
2022-10-04T01:51:18.781Z,1002.96
2022-10-04T01:52:18.771Z,1002.91
2022-10-04T01:53:18.763Z,1003.00
2022-10-04T01:54:18.760Z,1002.96
2022-10-04T01:55:18.770Z,1002.98
2022-10-04T01:56:18.744Z,1003.02
2022-10-04T01:57:18.734Z,1003.01
2022-10-04T01:58:18.733Z,1002.99
2022-10-04T01:59:18.719Z,1003.05
2022-10-04T02:00:18.748Z,1002.98
2022-10-04T02:01:18.781Z,1002.93
2022-10-04T02:02:18.702Z,1002.91
2022-10-04T02:03:18.690Z,1002.84
2022-10-04T02:04:22.291Z,1002.89
2022-10-04T02:05:19.700Z,1002.94
2022-10-04T02:06:18.670Z,1002.94
2022-10-04T02:07:18.657Z,1003.05
2022-10-04T02:08:18.652Z,1003.00
2022-10-04T02:09:18.639Z,1002.93
2022-10-04T02:10:18.657Z,1002.92
2022-10-04T02:11:18.624Z,1002.92
2022-10-04T02:12:18.623Z,1002.97
2022-10-04T02:13:18.624Z,1002.97
2022-10-04T02:14:18.601Z,1002.99
2022-10-04T02:15:18.627Z,1002.96
2022-10-04T02:16:18.618Z,1002.89
2022-10-04T02:17:18.579Z,1002.85
2022-10-04T02:18:18.575Z,1002.81
2022-10-04T02:19:18.571Z,1002.87
2022-10-04T02:20:18.587Z,1002.78
2022-10-04T02:21:18.552Z,1002.82
2022-10-04T02:22:18.542Z,1002.81
2022-10-04T02:23:18.610Z,1002.74
2022-10-04T02:24:18.524Z,1002.72
2022-10-04T02:25:18.560Z,1002.63
2022-10-04T02:26:18.517Z,1002.57
2022-10-04T02:27:18.508Z,1002.57
2022-10-04T02:28:18.538Z,1002.49
2022-10-04T02:29:18.487Z,1002.46
2022-10-04T02:30:18.517Z,1002.36
2022-10-04T02:31:18.525Z,1002.48
2022-10-04T02:32:18.466Z,1002.45
2022-10-04T02:33:18.464Z,1002.44
2022-10-04T02:34:18.452Z,1002.44
2022-10-04T02:35:18.444Z,1002.44
2022-10-04T02:36:18.472Z,1002.42
2022-10-04T02:37:18.432Z,1002.43
2022-10-04T02:38:18.428Z,1002.39
2022-10-04T02:39:18.421Z,1002.39
2022-10-04T02:40:18.419Z,1002.40
2022-10-04T02:41:18.425Z,1002.37
2022-10-04T02:42:18.393Z,1002.46
2022-10-04T02:43:18.388Z,1002.41
2022-10-04T02:44:18.386Z,1002.41
2022-10-04T02:45:18.375Z,1002.44
2022-10-04T02:46:18.409Z,1002.38
2022-10-04T02:47:18.364Z,1002.43
2022-10-04T02:48:18.346Z,1002.45
2022-10-04T02:49:18.342Z,1002.42
2022-10-04T02:50:18.341Z,1002.36
2022-10-04T02:51:18.346Z,1002.43
2022-10-04T02:52:18.321Z,1002.36
2022-10-04T02:53:18.306Z,1002.38
2022-10-04T02:54:18.299Z,1002.39
2022-10-04T02:55:18.299Z,1002.46
2022-10-04T02:56:18.316Z,1002.47
2022-10-04T02:57:18.287Z,1002.51
2022-10-04T02:58:18.291Z,1002.57
2022-10-04T02:59:18.264Z,1002.48
2022-10-04T03:00:18.293Z,1002.57
2022-10-04T03:01:18.298Z,1002.50
2022-10-04T03:02:23.637Z,1002.48
2022-10-04T03:03:19.237Z,1002.51
2022-10-04T03:04:18.232Z,1002.54
2022-10-04T03:05:18.246Z,1002.53
2022-10-04T03:06:18.220Z,1002.45
2022-10-04T03:07:18.215Z,1002.50
2022-10-04T03:08:18.199Z,1002.45
2022-10-04T03:09:18.189Z,1002.41
2022-10-04T03:10:18.221Z,1002.42
2022-10-04T03:11:18.195Z,1002.42
2022-10-04T03:12:18.171Z,1002.34
2022-10-04T03:13:18.170Z,1002.31
2022-10-04T03:14:18.154Z,1002.37
2022-10-04T03:15:18.186Z,1002.34
2022-10-04T03:16:18.220Z,1002.29
2022-10-04T03:17:18.117Z,1002.32
2022-10-04T03:18:19.120Z,1002.32
2022-10-04T03:19:18.115Z,1002.33
2022-10-04T03:20:18.107Z,1002.28
2022-10-04T03:21:18.126Z,1002.21
2022-10-04T03:22:18.092Z,1002.26
2022-10-04T03:23:18.084Z,1002.27
2022-10-04T03:24:18.079Z,1002.26
2022-10-04T03:25:18.075Z,1002.24
2022-10-04T03:26:18.492Z,1002.26
2022-10-04T03:27:18.059Z,1002.25
2022-10-04T03:28:18.130Z,1002.17
2022-10-04T03:29:18.042Z,1002.23
2022-10-04T03:30:18.047Z,1002.22
2022-10-04T03:31:18.082Z,1002.25
2022-10-04T03:32:18.009Z,1002.19
2022-10-04T03:33:19.016Z,1002.16
2022-10-04T03:34:18.006Z,1002.16
2022-10-04T03:35:17.997Z,1002.15
2022-10-04T03:36:18.014Z,1002.10
2022-10-04T03:37:17.974Z,1002.11
2022-10-04T03:38:17.972Z,1002.01
2022-10-04T03:39:17.984Z,1001.97
2022-10-04T03:40:17.984Z,1002.07
2022-10-04T03:41:17.950Z,1002.12
2022-10-04T03:42:17.936Z,1002.04
2022-10-04T03:43:17.931Z,1002.08
2022-10-04T03:44:17.927Z,1002.06
2022-10-04T03:45:17.946Z,1002.13
2022-10-04T03:46:17.932Z,1002.05
2022-10-04T03:47:17.895Z,1002.14
2022-10-04T03:48:17.895Z,1002.14
2022-10-04T03:49:17.885Z,1002.20
2022-10-04T03:50:17.913Z,1002.08
2022-10-04T03:51:17.872Z,1002.11
2022-10-04T03:52:17.866Z,1002.16
2022-10-04T03:53:17.853Z,1002.17
2022-10-04T03:54:17.849Z,1002.13
2022-10-04T03:55:17.847Z,1002.12
2022-10-04T03:56:17.864Z,1002.17
2022-10-04T03:57:17.827Z,1002.10
2022-10-04T03:58:52.224Z,1002.18
2022-10-04T03:59:17.817Z,1002.20
2022-10-04T04:00:17.816Z,1002.19
2022-10-04T04:01:17.862Z,1002.29
2022-10-04T04:02:18.841Z,1002.23
2022-10-04T04:03:17.793Z,1002.27
2022-10-04T04:04:17.782Z,1002.31
2022-10-04T04:05:17.785Z,1002.09
2022-10-04T04:06:17.792Z,1002.13
2022-10-04T04:07:17.762Z,1002.06
2022-10-04T04:08:17.754Z,1002.04
2022-10-04T04:09:17.746Z,1002.11
2022-10-04T04:10:17.731Z,1002.10
2022-10-04T04:11:17.760Z,1002.06
2022-10-04T04:12:17.736Z,1002.16
2022-10-04T04:13:17.723Z,1002.20
2022-10-04T04:14:17.706Z,1002.22
2022-10-04T04:15:17.710Z,1002.18
2022-10-04T04:16:17.870Z,1002.29
2022-10-04T04:17:17.700Z,1002.29
2022-10-04T04:18:17.682Z,1002.28
2022-10-04T04:19:17.679Z,1002.27
2022-10-04T04:20:17.660Z,1002.25
2022-10-04T04:21:17.691Z,1002.30
2022-10-04T04:22:17.649Z,1002.26
2022-10-04T04:23:17.645Z,1002.27
2022-10-04T04:24:17.632Z,1002.27
2022-10-04T04:25:17.630Z,1002.22
2022-10-04T04:26:17.648Z,1002.31
2022-10-04T04:27:17.614Z,1002.30
2022-10-04T04:28:17.675Z,1002.25
2022-10-04T04:29:17.600Z,1002.21
2022-10-04T04:30:17.592Z,1002.23
2022-10-04T04:31:17.709Z,1002.30
2022-10-04T04:32:17.574Z,1002.19
2022-10-04T04:33:20.978Z,1002.23
2022-10-04T04:34:18.557Z,1002.25
2022-10-04T04:35:17.552Z,1002.21
2022-10-04T04:36:17.567Z,1002.22
2022-10-04T04:37:17.538Z,1002.16
2022-10-04T04:38:17.531Z,1002.19
2022-10-04T04:39:17.519Z,1002.12
2022-10-04T04:40:17.519Z,1002.12
2022-10-04T04:41:17.530Z,1002.10
2022-10-04T04:42:17.500Z,1002.09
2022-10-04T04:43:17.486Z,1002.11
2022-10-04T04:44:17.488Z,1002.12
2022-10-04T04:45:17.473Z,1002.12
2022-10-04T04:46:27.581Z,1002.20
2022-10-04T04:47:19.461Z,1002.12
2022-10-04T04:48:17.457Z,1002.10
2022-10-04T04:49:17.442Z,1002.12
2022-10-04T04:50:17.443Z,1002.09
2022-10-04T04:51:17.457Z,1002.10
2022-10-04T04:52:17.428Z,1002.06
2022-10-04T04:53:17.433Z,1002.07
2022-10-04T04:54:17.406Z,1002.04
2022-10-04T04:55:17.400Z,1002.06
2022-10-04T04:56:18.177Z,1002.06
2022-10-04T04:57:18.377Z,1001.98
2022-10-04T04:58:17.370Z,1001.98
2022-10-04T04:59:17.363Z,1001.99
2022-10-04T05:00:17.360Z,1001.94
2022-10-04T05:01:17.443Z,1001.99
2022-10-04T05:02:17.376Z,1001.92
2022-10-04T05:03:17.342Z,1001.94
2022-10-04T05:04:17.333Z,1001.97
2022-10-04T05:05:17.327Z,1001.95
2022-10-04T05:06:17.341Z,1002.02
2022-10-04T05:07:17.301Z,1001.99
2022-10-04T05:08:17.296Z,1001.96
2022-10-04T05:09:17.287Z,1001.99
2022-10-04T05:10:17.288Z,1001.99
2022-10-04T05:11:17.307Z,1001.93
2022-10-04T05:12:17.265Z,1001.90
2022-10-04T05:13:17.262Z,1002.00
2022-10-04T05:14:17.251Z,1001.98
2022-10-04T05:15:19.455Z,1001.96
2022-10-04T05:16:17.345Z,1001.93
2022-10-04T05:17:17.231Z,1001.97
2022-10-04T05:18:17.216Z,1001.96
2022-10-04T05:19:17.209Z,1001.94
2022-10-04T05:20:17.206Z,1001.99
2022-10-04T05:21:17.218Z,1002.00
2022-10-04T05:22:17.183Z,1002.01
2022-10-04T05:23:17.187Z,1002.07
2022-10-04T05:24:17.171Z,1002.10
2022-10-04T05:25:17.167Z,1002.07
2022-10-04T05:26:17.181Z,1002.07
2022-10-04T05:27:17.144Z,1002.06
2022-10-04T05:28:17.197Z,1002.08
2022-10-04T05:29:17.147Z,1002.07
2022-10-04T05:30:17.175Z,1002.04
2022-10-04T05:31:17.182Z,1002.03
2022-10-04T05:32:17.116Z,1002.04
2022-10-04T05:33:17.098Z,1002.10
2022-10-04T05:34:17.091Z,1002.07
2022-10-04T05:35:17.090Z,1002.01
2022-10-04T05:36:17.114Z,1002.04
2022-10-04T05:37:17.073Z,1002.05
2022-10-04T05:38:17.070Z,1002.05
2022-10-04T05:39:17.065Z,1002.01
2022-10-04T05:40:17.056Z,1002.05
2022-10-04T05:41:17.042Z,1002.06
2022-10-04T05:42:17.068Z,1002.01
2022-10-04T05:43:17.027Z,1001.95
2022-10-04T05:44:17.022Z,1002.03
2022-10-04T05:45:17.008Z,1002.04
2022-10-04T05:46:17.092Z,1002.07
2022-10-04T05:47:17.022Z,1002.08
2022-10-04T05:48:16.985Z,1002.07
2022-10-04T05:49:19.588Z,1002.10
2022-10-04T05:50:17.972Z,1002.10
2022-10-04T05:51:16.965Z,1002.09
2022-10-04T05:52:17.215Z,1002.05
2022-10-04T05:53:16.950Z,1002.10
2022-10-04T05:54:16.941Z,1002.02
2022-10-04T05:55:16.935Z,1001.99
2022-10-04T05:56:16.932Z,1002.01
2022-10-04T05:57:16.986Z,1002.02
2022-10-04T05:58:16.916Z,1001.96
2022-10-04T05:59:16.913Z,1002.00
2022-10-04T06:00:16.893Z,1002.00
2022-10-04T06:01:16.945Z,1002.00
2022-10-04T06:02:16.950Z,1001.95
2022-10-04T06:03:16.875Z,1001.95
2022-10-04T06:04:16.981Z,1002.05
2022-10-04T06:05:16.859Z,1001.97
2022-10-04T06:06:16.848Z,1001.81
2022-10-04T06:07:16.871Z,1001.92
2022-10-04T06:08:16.840Z,1001.98
2022-10-04T06:09:16.823Z,1001.94
2022-10-04T06:10:16.811Z,1001.97
2022-10-04T06:11:17.806Z,1001.99
2022-10-04T06:12:16.835Z,1001.89
2022-10-04T06:13:16.793Z,1001.90
2022-10-04T06:14:16.800Z,1001.99
2022-10-04T06:15:16.773Z,1001.99
2022-10-04T06:16:16.832Z,1001.97
2022-10-04T06:17:17.222Z,1002.01
2022-10-04T06:18:16.771Z,1001.95
2022-10-04T06:19:16.752Z,1001.96
2022-10-04T06:20:16.745Z,1001.93
2022-10-04T06:21:16.737Z,1001.93
2022-10-04T06:22:16.754Z,1001.93
2022-10-04T06:23:16.732Z,1001.96
2022-10-04T06:24:16.714Z,1001.95
2022-10-04T06:25:16.725Z,1001.94
2022-10-04T06:26:16.694Z,1001.93
2022-10-04T06:27:16.716Z,1001.93
2022-10-04T06:28:16.744Z,1002.00
2022-10-04T06:29:16.670Z,1001.97
2022-10-04T06:30:16.674Z,1001.94
2022-10-04T06:31:16.711Z,1001.96
2022-10-04T06:32:16.680Z,1002.01
2022-10-04T06:33:16.652Z,1002.06
2022-10-04T06:34:16.647Z,1002.05
2022-10-04T06:35:16.639Z,1002.04
2022-10-04T06:36:16.618Z,1002.05
2022-10-04T06:37:16.641Z,1002.09
2022-10-04T06:38:16.608Z,1002.08
2022-10-04T06:39:16.597Z,1002.16
2022-10-04T06:40:16.595Z,1002.08
2022-10-04T06:41:16.580Z,1002.02
2022-10-04T06:42:16.600Z,1002.05
2022-10-04T06:43:16.592Z,1002.05
2022-10-04T06:44:16.569Z,1002.08
2022-10-04T06:45:16.560Z,1002.16
2022-10-04T06:46:16.657Z,1002.15
2022-10-04T06:47:16.571Z,1002.16
2022-10-04T06:48:16.538Z,1002.14
2022-10-04T06:49:16.525Z,1002.03
2022-10-04T06:50:16.549Z,1002.15
2022-10-04T06:51:16.510Z,1002.17
2022-10-04T06:52:17.606Z,1002.20
2022-10-04T06:53:17.500Z,1002.20
2022-10-04T06:54:16.479Z,1002.18
2022-10-04T06:55:16.487Z,1002.19
2022-10-04T06:56:16.476Z,1002.18
2022-10-04T06:57:16.471Z,1002.23
2022-10-04T06:58:16.491Z,1002.29
2022-10-04T06:59:16.450Z,1002.23
2022-10-04T07:00:16.446Z,1002.33
2022-10-04T07:01:16.477Z,1002.27
2022-10-04T07:02:16.485Z,1002.30
2022-10-04T07:03:16.448Z,1002.35
2022-10-04T07:04:16.417Z,1002.29
2022-10-04T07:05:16.403Z,1002.30
2022-10-04T07:06:16.398Z,1002.32
2022-10-04T07:07:16.420Z,1002.32
2022-10-04T07:08:16.386Z,1002.26
2022-10-04T07:09:16.376Z,1002.31
2022-10-04T07:10:16.367Z,1002.28
2022-10-04T07:11:16.354Z,1002.25
2022-10-04T07:12:16.377Z,1002.30
2022-10-04T07:13:16.382Z,1002.36
2022-10-04T07:14:16.335Z,1002.23
2022-10-04T07:15:16.360Z,1002.32
2022-10-04T07:16:16.374Z,1002.25
2022-10-04T07:17:16.318Z,1002.39
2022-10-04T07:18:16.336Z,1002.32
2022-10-04T07:19:16.296Z,1002.36
2022-10-04T07:20:16.289Z,1002.43
2022-10-04T07:21:16.277Z,1002.44
2022-10-04T07:22:16.269Z,1002.40
2022-10-04T07:23:16.282Z,1002.38
2022-10-04T07:24:16.250Z,1002.45
2022-10-04T07:25:16.261Z,1002.42
2022-10-04T07:26:16.237Z,1002.39
2022-10-04T07:27:16.220Z,1002.37
2022-10-04T07:28:16.273Z,1002.42
2022-10-04T07:29:16.216Z,1002.45
2022-10-04T07:30:16.214Z,1002.38
2022-10-04T07:31:16.226Z,1002.44
2022-10-04T07:32:16.185Z,1002.45
2022-10-04T07:33:16.218Z,1002.40
2022-10-04T07:34:16.194Z,1002.41
2022-10-04T07:35:16.163Z,1002.43
2022-10-04T07:36:21.089Z,1002.43
2022-10-04T07:37:18.160Z,1002.40
2022-10-04T07:38:16.173Z,1002.45
2022-10-04T07:39:16.135Z,1002.42
2022-10-04T07:40:16.138Z,1002.45
2022-10-04T07:41:16.122Z,1002.52
2022-10-04T07:42:16.115Z,1002.48
2022-10-04T07:43:16.129Z,1002.51
2022-10-04T07:44:16.118Z,1002.45
2022-10-04T07:45:16.089Z,1002.54
2022-10-04T07:46:16.106Z,1002.48
2022-10-04T07:47:16.080Z,1002.55
2022-10-04T07:48:16.090Z,1002.58
2022-10-04T07:49:16.065Z,1002.49
2022-10-04T07:50:16.051Z,1002.53
2022-10-04T07:51:16.039Z,1002.57
2022-10-04T07:52:16.033Z,1002.58
2022-10-04T07:53:16.060Z,1002.51
2022-10-04T07:54:16.017Z,1002.54
2022-10-04T07:55:16.013Z,1002.51
2022-10-04T07:56:16.016Z,1002.49
2022-10-04T07:57:15.998Z,1002.49
2022-10-04T07:58:16.117Z,1002.50
2022-10-04T07:59:15.985Z,1002.46
2022-10-04T08:00:15.964Z,1002.58
2022-10-04T08:01:15.967Z,1002.52
2022-10-04T08:02:16.032Z,1002.55
2022-10-04T08:03:16.044Z,1002.47
2022-10-04T08:04:15.942Z,1002.51
2022-10-04T08:05:15.932Z,1002.56
2022-10-04T08:06:15.926Z,1002.61
2022-10-04T08:07:15.923Z,1002.53
2022-10-04T08:08:15.941Z,1002.53
2022-10-04T08:09:15.930Z,1002.49
2022-10-04T08:10:15.892Z,1002.47
2022-10-04T08:11:15.881Z,1002.45
2022-10-04T08:12:15.880Z,1002.47
2022-10-04T08:13:15.900Z,1002.50
2022-10-04T08:14:15.858Z,1002.46
2022-10-04T08:15:15.851Z,1002.46
2022-10-04T08:16:15.908Z,1002.45
2022-10-04T08:17:15.987Z,1002.42
2022-10-04T08:18:16.828Z,1002.37
2022-10-04T08:19:15.816Z,1002.40
2022-10-04T08:20:15.817Z,1002.47
2022-10-04T08:21:15.802Z,1002.40
2022-10-04T08:22:15.827Z,1002.43
2022-10-04T08:23:16.795Z,1002.38
2022-10-04T08:24:15.776Z,1002.43
2022-10-04T08:25:15.775Z,1002.43
2022-10-04T08:26:15.762Z,1002.35
2022-10-04T08:27:15.790Z,1002.43
2022-10-04T08:28:15.809Z,1002.37
2022-10-04T08:29:15.746Z,1002.40
2022-10-04T08:30:15.734Z,1002.39
2022-10-04T08:31:15.793Z,1002.39
2022-10-04T08:32:15.715Z,1002.40
2022-10-04T08:33:15.748Z,1002.32
2022-10-04T08:34:15.703Z,1002.37
2022-10-04T08:35:15.703Z,1002.41
2022-10-04T08:36:15.700Z,1002.37
2022-10-04T08:37:15.709Z,1002.41
2022-10-04T08:38:15.705Z,1002.41
2022-10-04T08:39:15.670Z,1002.43
2022-10-04T08:40:15.677Z,1002.37
2022-10-04T08:41:15.669Z,1002.35
2022-10-04T08:42:15.667Z,1002.41
2022-10-04T08:43:15.679Z,1002.35
2022-10-04T08:44:15.645Z,1002.34
2022-10-04T08:45:15.624Z,1002.30
2022-10-04T08:46:15.699Z,1002.35
2022-10-04T08:47:19.884Z,1002.28
2022-10-04T08:48:17.634Z,1002.25
2022-10-04T08:49:15.606Z,1002.27
2022-10-04T08:50:15.594Z,1002.21
2022-10-04T08:51:15.591Z,1002.20
2022-10-04T08:52:15.576Z,1002.29
2022-10-04T08:53:15.600Z,1002.20
2022-10-04T08:54:15.565Z,1002.21
2022-10-04T08:55:15.562Z,1002.16
2022-10-04T08:56:15.559Z,1002.11
2022-10-04T08:57:16.467Z,1002.04
2022-10-04T08:58:16.573Z,1002.12
2022-10-04T08:59:15.528Z,1002.08
2022-10-04T09:00:15.531Z,1002.11
2022-10-04T09:01:15.547Z,1002.09
2022-10-04T09:02:15.551Z,1002.15
2022-10-04T09:03:15.530Z,1002.12
2022-10-04T09:04:15.489Z,1002.18
2022-10-04T09:05:15.491Z,1002.17
2022-10-04T09:06:15.481Z,1002.19
2022-10-04T09:07:15.474Z,1002.21
2022-10-04T09:08:15.494Z,1002.21
2022-10-04T09:09:15.497Z,1002.20
2022-10-04T09:10:15.477Z,1002.17
2022-10-04T09:11:15.469Z,1002.23
2022-10-04T09:12:15.464Z,1002.19
2022-10-04T09:13:15.495Z,1002.17
2022-10-04T09:14:15.455Z,1002.19
2022-10-04T09:15:15.403Z,1002.18
2022-10-04T09:16:15.443Z,1002.17
2022-10-04T09:17:18.578Z,1002.16
2022-10-04T09:18:17.405Z,1002.13
2022-10-04T09:19:15.417Z,1002.06
2022-10-04T09:20:37.405Z,1002.11
2022-10-04T09:21:17.359Z,1002.09
2022-10-04T09:22:15.355Z,1002.05
2022-10-04T09:23:15.371Z,1002.08
2022-10-04T09:24:15.340Z,1002.05
2022-10-04T09:25:15.352Z,1002.07
2022-10-04T09:26:15.339Z,1002.12
2022-10-04T09:27:31.490Z,1002.08
2022-10-04T09:28:17.451Z,1002.07
2022-10-04T09:29:15.302Z,1002.03
2022-10-04T09:30:15.372Z,1002.08
2022-10-04T09:31:15.323Z,1002.05
2022-10-04T09:32:15.287Z,1002.04
2022-10-04T09:33:16.716Z,1002.06
2022-10-04T09:34:16.284Z,1002.01
2022-10-04T09:35:15.310Z,1002.04
2022-10-04T09:36:16.217Z,1002.09
2022-10-04T09:37:17.737Z,1002.02
2022-10-04T09:38:16.382Z,1002.10
2022-10-04T09:39:29.892Z,1001.97
2022-10-04T09:40:20.731Z,1001.95
2022-10-04T09:41:17.224Z,1002.07
2022-10-04T09:42:16.235Z,1002.11
2022-10-04T09:43:15.781Z,1002.11
2022-10-04T09:44:17.806Z,1002.09
2022-10-04T09:45:15.922Z,1002.03
2022-10-04T09:46:16.795Z,1002.02
2022-10-04T09:47:18.799Z,1002.05
2022-10-04T09:48:18.275Z,1002.04
2022-10-04T09:49:17.223Z,1002.05
2022-10-04T09:50:18.237Z,1002.07
2022-10-04T09:51:17.223Z,1002.13
2022-10-04T09:52:18.274Z,1002.06
2022-10-04T09:53:15.773Z,1002.18
2022-10-04T09:54:15.164Z,1002.05
2022-10-04T09:55:18.801Z,1002.09
2022-10-04T09:56:16.868Z,1002.00
2022-10-04T09:57:17.304Z,1002.04
2022-10-04T09:58:17.754Z,1001.92
2022-10-04T09:59:49.331Z,1001.91
2022-10-04T10:00:15.059Z,1001.98
2022-10-04T10:01:15.098Z,1002.00
2022-10-04T10:02:15.046Z,1002.01
2022-10-04T10:03:16.108Z,1002.06
2022-10-04T10:04:16.024Z,1002.06
2022-10-04T10:05:15.030Z,1002.02
2022-10-04T10:06:15.006Z,1001.99
2022-10-04T10:07:15.094Z,1001.99
2022-10-04T10:08:14.994Z,1001.94
2022-10-04T10:09:14.988Z,1002.00
2022-10-04T10:10:14.978Z,1002.06
2022-10-04T10:11:14.974Z,1002.04
2022-10-04T10:12:14.993Z,1001.96
2022-10-04T10:13:14.964Z,1002.00
2022-10-04T10:14:14.946Z,1001.90
2022-10-04T10:15:14.940Z,1001.92
2022-10-04T10:16:14.992Z,1001.94
2022-10-04T10:17:14.921Z,1001.87
2022-10-04T10:18:14.945Z,1001.88
2022-10-04T10:19:14.927Z,1001.86
2022-10-04T10:20:14.897Z,1001.90
2022-10-04T10:21:15.892Z,1001.90
2022-10-04T10:22:14.883Z,1001.88
2022-10-04T10:23:14.902Z,1001.97
2022-10-04T10:24:14.869Z,1001.93
2022-10-04T10:25:14.856Z,1001.93
2022-10-04T10:26:14.851Z,1001.96
2022-10-04T10:27:14.844Z,1001.96
2022-10-04T10:28:14.925Z,1001.91
2022-10-04T10:29:14.832Z,1001.97
2022-10-04T10:30:14.828Z,1001.99
2022-10-04T10:31:14.846Z,1001.92
2022-10-04T10:32:14.837Z,1001.92
2022-10-04T10:33:14.794Z,1001.97
2022-10-04T10:34:14.790Z,1002.01
2022-10-04T10:35:14.781Z,1001.99
2022-10-04T10:36:14.771Z,1001.97
2022-10-04T10:37:14.792Z,1001.96
2022-10-04T10:38:14.786Z,1001.86
2022-10-04T10:39:14.753Z,1001.84
2022-10-04T10:40:14.738Z,1001.86
2022-10-04T10:41:14.736Z,1001.88
2022-10-04T10:42:14.729Z,1001.93
2022-10-04T10:43:14.759Z,1001.90
2022-10-04T10:44:14.712Z,1001.91
2022-10-04T10:45:14.707Z,1001.88
2022-10-04T10:46:14.727Z,1001.93
2022-10-04T10:47:14.686Z,1001.93
2022-10-04T10:48:14.708Z,1001.99
2022-10-04T10:49:16.952Z,1001.99
2022-10-04T10:50:14.670Z,1002.03
2022-10-04T10:51:14.659Z,1001.95
2022-10-04T10:52:14.651Z,1001.90
2022-10-04T10:53:14.665Z,1001.99
2022-10-04T10:54:14.632Z,1001.91
2022-10-04T10:55:14.648Z,1001.88
2022-10-04T10:56:14.626Z,1001.86
2022-10-04T10:57:14.639Z,1001.80
2022-10-04T10:58:14.605Z,1001.84
2022-10-04T10:59:14.599Z,1001.84
2022-10-04T11:00:14.589Z,1001.77
2022-10-04T11:01:14.593Z,1001.72
2022-10-04T11:02:14.706Z,1001.69
2022-10-04T11:03:17.265Z,1001.76
2022-10-04T11:04:14.553Z,1001.70
2022-10-04T11:05:14.554Z,1001.67
2022-10-04T11:06:14.538Z,1001.69
2022-10-04T11:07:14.562Z,1001.67
2022-10-04T11:08:14.539Z,1001.62
2022-10-04T11:09:14.518Z,1001.62
2022-10-04T11:10:14.521Z,1001.53
2022-10-04T11:11:14.509Z,1001.52
2022-10-04T11:12:14.554Z,1001.59
2022-10-04T11:13:14.494Z,1001.60
2022-10-04T11:14:14.488Z,1001.57
2022-10-04T11:15:14.479Z,1001.59
2022-10-04T11:16:14.512Z,1001.60
2022-10-04T11:17:14.497Z,1001.56
2022-10-04T11:18:14.470Z,1001.56
2022-10-04T11:19:14.448Z,1001.49
2022-10-04T11:20:14.448Z,1001.53
2022-10-04T11:21:14.478Z,1001.56
2022-10-04T11:22:14.455Z,1001.53
2022-10-04T11:23:14.438Z,1001.54
2022-10-04T11:24:14.457Z,1001.54
2022-10-04T11:25:14.399Z,1001.50
2022-10-04T11:26:14.393Z,1001.48
2022-10-04T11:27:14.431Z,1001.48
2022-10-04T11:28:14.515Z,1001.47
2022-10-04T11:29:14.368Z,1001.49
2022-10-04T11:30:14.363Z,1001.35
2022-10-04T11:31:14.519Z,1001.35
2022-10-04T11:32:14.360Z,1001.40
2022-10-04T11:33:14.386Z,1001.37
2022-10-04T11:34:16.798Z,1001.38
2022-10-04T11:35:15.331Z,1001.33
2022-10-04T11:36:14.315Z,1001.37
2022-10-04T11:37:14.314Z,1001.37
2022-10-04T11:38:14.329Z,1001.34
2022-10-04T11:39:14.294Z,1001.38
2022-10-04T11:40:14.282Z,1001.36
2022-10-04T11:41:14.277Z,1001.25
2022-10-04T11:42:14.309Z,1001.26
2022-10-04T11:43:14.261Z,1001.26
2022-10-04T11:44:14.256Z,1001.25
2022-10-04T11:45:14.243Z,1001.34
2022-10-04T11:46:14.320Z,1001.26
2022-10-04T11:47:14.275Z,1001.22
2022-10-04T11:48:14.224Z,1001.29
2022-10-04T11:49:14.261Z,1001.19
2022-10-04T11:50:14.214Z,1001.21
2022-10-04T11:51:14.199Z,1001.23
2022-10-04T11:52:14.216Z,1001.18
2022-10-04T11:53:14.183Z,1001.29
2022-10-04T11:54:14.171Z,1001.29
2022-10-04T11:55:14.168Z,1001.20
2022-10-04T11:56:14.197Z,1001.13
2022-10-04T11:57:14.180Z,1001.22
2022-10-04T11:58:14.138Z,1001.19
2022-10-04T11:59:14.132Z,1001.24
2022-10-04T12:00:14.129Z,1001.20
2022-10-04T12:01:14.138Z,1001.21
2022-10-04T12:02:14.135Z,1001.22
2022-10-04T12:03:14.133Z,1001.22
2022-10-04T12:04:14.232Z,1001.24
2022-10-04T12:05:14.089Z,1001.19